createdAt,value
2019-05-19T00:01:01.679Z,99.90
2019-05-19T00:03:30.159Z,99.90
2019-05-19T00:05:58.563Z,99.90
2019-05-19T00:08:27.018Z,99.90
2019-05-19T00:10:55.426Z,99.90
2019-05-19T00:13:23.887Z,99.90
2019-05-19T00:15:52.284Z,99.90
2019-05-19T00:18:20.783Z,99.90
2019-05-19T00:20:49.198Z,99.90
2019-05-19T00:23:17.610Z,99.90
2019-05-19T00:25:46.017Z,99.90
2019-05-19T00:28:14.424Z,99.90
2019-05-19T00:30:43.147Z,99.90
2019-05-19T00:33:11.554Z,99.90
2019-05-19T00:35:39.969Z,99.90
2019-05-19T00:38:08.407Z,99.90
2019-05-19T00:40:36.821Z,99.90
2019-05-19T00:43:05.216Z,99.90
2019-05-19T00:45:33.625Z,99.90
2019-05-19T00:48:02.042Z,99.90
2019-05-19T00:50:30.450Z,99.90
2019-05-19T00:52:58.935Z,99.90
2019-05-19T00:55:27.338Z,99.90
2019-05-19T00:57:56.785Z,99.90
2019-05-19T01:00:25.195Z,99.90
2019-05-19T01:02:53.603Z,99.90
2019-05-19T01:05:22.012Z,99.90
2019-05-19T01:07:50.405Z,99.90
2019-05-19T01:10:19.059Z,99.90
2019-05-19T01:12:47.458Z,99.90
2019-05-19T01:15:17.714Z,99.90
2019-05-19T01:17:46.116Z,99.90
2019-05-19T01:20:15.150Z,99.90
2019-05-19T01:22:43.552Z,99.90
2019-05-19T01:25:12.298Z,99.90
2019-05-19T01:27:40.733Z,99.90
2019-05-19T01:30:10.738Z,99.90
2019-05-19T01:32:39.137Z,99.90
2019-05-19T01:35:07.877Z,99.90
2019-05-19T01:37:36.274Z,99.90
2019-05-19T01:40:06.891Z,99.90
2019-05-19T01:42:35.358Z,99.90
2019-05-19T01:45:08.216Z,99.90
2019-05-19T01:47:36.619Z,99.90
2019-05-19T01:50:22.231Z,99.90
2019-05-19T01:52:37.003Z,99.90
2019-05-19T01:55:06.253Z,99.90
2019-05-19T01:57:34.666Z,99.90
2019-05-19T02:00:04.345Z,99.90
2019-05-19T02:02:32.844Z,99.90
2019-05-19T02:05:01.358Z,99.90
2019-05-19T02:07:29.851Z,99.90
2019-05-19T02:09:58.354Z,99.90
2019-05-19T02:12:26.846Z,99.90
2019-05-19T02:14:55.254Z,99.90
2019-05-19T02:17:23.654Z,99.90
2019-05-19T02:19:52.064Z,99.90
2019-05-19T02:22:20.461Z,99.90
2019-05-19T02:24:48.871Z,99.90
2019-05-19T02:27:17.278Z,99.90
2019-05-19T02:29:45.689Z,99.90
2019-05-19T02:32:14.097Z,99.90
2019-05-19T02:34:42.779Z,99.90
2019-05-19T02:37:11.189Z,99.90
2019-05-19T02:39:39.670Z,99.90
2019-05-19T02:42:09.213Z,99.90
2019-05-19T02:44:39.664Z,99.90
2019-05-19T02:47:09.775Z,99.90
2019-05-19T02:49:39.191Z,99.90
2019-05-19T02:52:09.236Z,99.90
2019-05-19T02:54:37.979Z,99.90
2019-05-19T02:57:06.622Z,99.90
2019-05-19T02:59:35.843Z,99.90
2019-05-19T03:02:05.891Z,99.90
2019-05-19T03:04:34.293Z,99.90
2019-05-19T03:07:02.703Z,99.90
2019-05-19T03:09:31.102Z,99.90
2019-05-19T03:11:59.577Z,99.90
2019-05-19T03:14:27.975Z,99.90
2019-05-19T03:16:56.393Z,99.90
2019-05-19T03:19:24.827Z,99.90
2019-05-19T03:21:53.234Z,99.90
2019-05-19T03:24:21.634Z,99.90
2019-05-19T03:26:50.316Z,99.90
2019-05-19T03:29:20.362Z,99.90
2019-05-19T03:31:56.359Z,99.90
2019-05-19T03:34:26.671Z,99.90
2019-05-19T03:36:55.079Z,99.90
2019-05-19T03:39:23.482Z,99.90
2019-05-19T03:41:51.892Z,99.90
2019-05-19T03:44:20.287Z,99.90
2019-05-19T03:46:48.692Z,99.90
2019-05-19T03:49:17.274Z,99.90
2019-05-19T03:51:48.498Z,99.90
2019-05-19T03:54:16.889Z,99.90
2019-05-19T03:56:45.296Z,99.90
2019-05-19T03:59:13.694Z,99.90
2019-05-19T04:01:42.105Z,99.90
2019-05-19T04:04:10.499Z,99.90
2019-05-19T04:06:38.914Z,99.90
2019-05-19T04:09:07.839Z,99.90
2019-05-19T04:11:36.254Z,99.90
2019-05-19T04:14:04.657Z,99.90
2019-05-19T04:16:33.067Z,99.90
2019-05-19T04:19:02.706Z,99.90
2019-05-19T04:21:47.480Z,99.90
2019-05-19T04:24:01.282Z,99.90
2019-05-19T04:26:29.691Z,99.90
2019-05-19T04:28:58.106Z,99.90
2019-05-19T04:31:26.509Z,99.90
2019-05-19T04:33:54.955Z,99.90
2019-05-19T04:36:23.362Z,99.90
2019-05-19T04:38:51.797Z,99.90
2019-05-19T04:41:20.199Z,99.90
2019-05-19T04:43:48.603Z,99.90
2019-05-19T04:46:17.007Z,99.90
2019-05-19T04:48:45.414Z,99.90
2019-05-19T04:51:13.825Z,99.90
2019-05-19T04:53:42.306Z,99.90
2019-05-19T04:56:10.705Z,99.90
2019-05-19T04:58:39.107Z,99.90
2019-05-19T05:01:07.519Z,99.90
2019-05-19T05:03:35.930Z,99.90
2019-05-19T05:06:04.343Z,99.90
2019-05-19T05:08:32.758Z,99.90
2019-05-19T05:11:01.163Z,99.90
2019-05-19T05:13:29.570Z,99.90
2019-05-19T05:15:57.978Z,99.90
2019-05-19T05:18:26.394Z,99.90
2019-05-19T05:20:54.806Z,99.90
2019-05-19T05:23:23.220Z,99.90
2019-05-19T05:25:51.619Z,99.90
2019-05-19T05:28:20.058Z,99.90
2019-05-19T05:30:48.570Z,99.90
2019-05-19T05:33:16.981Z,99.90
2019-05-19T05:35:45.399Z,99.90
2019-05-19T05:38:13.811Z,99.90
2019-05-19T05:40:42.214Z,99.90
2019-05-19T05:43:10.644Z,99.90
2019-05-19T05:45:39.046Z,99.90
2019-05-19T05:48:07.455Z,99.90
2019-05-19T05:50:35.862Z,99.90
2019-05-19T05:53:04.343Z,99.90
2019-05-19T05:55:32.750Z,99.90
2019-05-19T05:58:01.170Z,99.90
2019-05-19T06:00:29.571Z,99.90
2019-05-19T06:02:58.023Z,99.90
2019-05-19T06:05:26.431Z,99.90
2019-05-19T06:07:54.839Z,99.90
2019-05-19T06:10:23.241Z,99.90
2019-05-19T06:12:51.655Z,99.90
2019-05-19T06:15:20.063Z,99.90
2019-05-19T06:17:48.469Z,99.90
2019-05-19T06:20:16.945Z,99.90
2019-05-19T06:22:55.675Z,99.90
2019-05-19T06:25:15.607Z,99.90
2019-05-19T06:27:44.038Z,99.90
2019-05-19T06:30:13.122Z,99.90
2019-05-19T06:32:43.173Z,99.90
2019-05-19T06:35:11.925Z,99.90
2019-05-19T06:37:40.344Z,99.90
2019-05-19T06:40:08.993Z,99.90
2019-05-19T06:42:37.411Z,99.90
2019-05-19T06:45:06.158Z,99.90
2019-05-19T06:47:34.580Z,99.90
2019-05-19T06:50:04.314Z,99.90
2019-05-19T06:52:32.738Z,99.90
2019-05-19T06:55:01.247Z,99.90
2019-05-19T06:57:29.665Z,99.90
2019-05-19T06:59:58.094Z,99.90
2019-05-19T07:02:26.558Z,99.90
2019-05-19T07:04:55.019Z,99.90
2019-05-19T07:07:23.526Z,99.90
2019-05-19T07:09:58.466Z,99.90
2019-05-19T07:12:22.079Z,99.90
2019-05-19T07:14:50.500Z,99.90
2019-05-19T07:17:18.986Z,99.90
2019-05-19T07:19:47.407Z,99.90
2019-05-19T07:22:15.838Z,99.90
2019-05-19T07:24:44.251Z,99.90
2019-05-19T07:27:12.680Z,99.90
2019-05-19T07:29:41.172Z,94.70
2019-05-19T07:32:11.029Z,73.50
2019-05-19T07:34:39.466Z,66.50
2019-05-19T07:37:10.392Z,61.10
2019-05-19T07:39:38.982Z,59.80
2019-05-19T07:42:07.445Z,57.20
2019-05-19T07:44:35.931Z,55.40
2019-05-19T07:47:04.394Z,51.70
2019-05-19T07:49:32.804Z,50.80
2019-05-19T07:52:01.221Z,49.00
2019-05-19T07:54:29.710Z,47.30
2019-05-19T07:56:58.242Z,46.70
2019-05-19T07:59:26.745Z,47.80
2019-05-19T08:01:55.423Z,45.10
2019-05-19T08:04:23.857Z,43.50
2019-05-19T08:06:52.342Z,41.40
2019-05-19T08:09:20.746Z,42.80
2019-05-19T08:11:49.159Z,43.20
2019-05-19T08:14:17.594Z,41.40
2019-05-19T08:16:46.008Z,41.80
2019-05-19T08:19:14.430Z,39.80
2019-05-19T08:21:42.838Z,39.70
2019-05-19T08:24:11.393Z,40.40
2019-05-19T08:26:39.914Z,38.20
2019-05-19T08:29:08.390Z,36.60
2019-05-19T08:31:36.809Z,35.60
2019-05-19T08:34:05.324Z,35.10
2019-05-19T08:36:33.898Z,32.40
2019-05-19T08:39:03.960Z,34.30
2019-05-19T08:41:32.369Z,36.60
2019-05-19T08:44:01.085Z,36.90
2019-05-19T08:46:29.498Z,39.40
2019-05-19T08:48:58.583Z,41.20
2019-05-19T08:51:27.174Z,42.70
2019-05-19T08:53:55.589Z,42.20
2019-05-19T08:56:24.010Z,38.30
2019-05-19T08:58:52.433Z,38.00
2019-05-19T09:01:20.848Z,38.40
2019-05-19T09:03:49.333Z,36.60
2019-05-19T09:06:18.030Z,37.90
2019-05-19T09:08:46.615Z,38.90
2019-05-19T09:11:15.065Z,36.30
2019-05-19T09:13:43.525Z,34.50
2019-05-19T09:16:12.202Z,34.80
2019-05-19T09:18:40.635Z,35.60
2019-05-19T09:21:09.038Z,36.00
2019-05-19T09:23:37.466Z,35.10
2019-05-19T09:26:05.898Z,35.30
2019-05-19T09:28:34.363Z,36.40
2019-05-19T09:31:02.771Z,35.20
2019-05-19T09:33:31.259Z,35.20
2019-05-19T09:35:59.675Z,32.90
2019-05-19T09:38:28.105Z,32.90
2019-05-19T09:40:56.510Z,31.60
2019-05-19T09:43:24.935Z,30.30
2019-05-19T09:45:53.342Z,32.10
2019-05-19T09:48:21.773Z,30.50
2019-05-19T09:50:50.288Z,29.60
2019-05-19T09:53:18.698Z,29.50
2019-05-19T09:55:47.125Z,29.90
2019-05-19T09:58:19.728Z,30.50
2019-05-19T10:00:46.173Z,30.40
2019-05-19T10:03:14.600Z,30.80
2019-05-19T10:05:43.065Z,30.60
2019-05-19T10:08:11.482Z,30.80
2019-05-19T10:10:52.121Z,32.20
2019-05-19T10:13:20.534Z,30.60
2019-05-19T10:15:48.959Z,32.50
2019-05-19T10:18:17.374Z,32.90
2019-05-19T10:20:45.790Z,33.70
2019-05-19T10:23:14.202Z,33.50
2019-05-19T10:25:42.849Z,31.10
2019-05-19T10:28:11.262Z,30.50
2019-05-19T10:30:39.702Z,30.50
2019-05-19T10:33:08.119Z,29.60
2019-05-19T10:35:36.909Z,30.10
2019-05-19T10:38:05.325Z,29.60
2019-05-19T10:40:33.879Z,28.80
2019-05-19T10:43:02.405Z,29.90
2019-05-19T10:45:30.827Z,28.60
2019-05-19T10:47:59.265Z,28.70
2019-05-19T10:50:27.675Z,28.50
2019-05-19T10:52:56.100Z,28.90
2019-05-19T10:55:35.548Z,30.70
2019-05-19T10:57:54.742Z,30.30
2019-05-19T11:00:23.423Z,30.90
2019-05-19T11:02:51.835Z,29.80
2019-05-19T11:05:20.287Z,29.60
2019-05-19T11:07:48.768Z,28.50
2019-05-19T11:10:17.672Z,30.10
2019-05-19T11:12:47.012Z,29.50
2019-05-19T11:15:15.844Z,31.20
2019-05-19T11:17:44.246Z,29.40
2019-05-19T11:20:13.021Z,30.00
2019-05-19T11:22:41.438Z,31.70
2019-05-19T11:25:10.182Z,29.60
2019-05-19T11:27:38.595Z,29.30
2019-05-19T11:30:07.318Z,28.90
2019-05-19T11:32:35.710Z,29.90
2019-05-19T11:35:06.331Z,28.80
2019-05-19T11:37:34.737Z,28.90
2019-05-19T11:40:03.586Z,29.10
2019-05-19T11:42:32.092Z,29.70
2019-05-19T11:45:00.519Z,30.80
2019-05-19T11:47:28.987Z,30.30
2019-05-19T11:49:57.393Z,31.30
2019-05-19T11:52:25.845Z,33.70
2019-05-19T11:54:54.258Z,32.50
2019-05-19T11:57:22.670Z,31.00
2019-05-19T11:59:51.130Z,31.10
2019-05-19T12:02:19.539Z,31.80
2019-05-19T12:04:47.946Z,32.70
2019-05-19T12:07:16.353Z,33.60
2019-05-19T12:09:44.818Z,34.90
2019-05-19T12:12:13.238Z,33.10
2019-05-19T12:14:41.641Z,31.10
2019-05-19T12:17:10.094Z,30.40
2019-05-19T12:19:38.612Z,31.70
2019-05-19T12:22:07.031Z,31.90
2019-05-19T12:24:35.438Z,31.70
2019-05-19T12:27:04.304Z,35.80
2019-05-19T12:29:32.738Z,31.50
2019-05-19T12:32:01.171Z,33.20
2019-05-19T12:34:29.583Z,33.60
2019-05-19T12:36:58.006Z,32.80
2019-05-19T12:39:26.410Z,32.00
2019-05-19T12:41:54.910Z,32.60
2019-05-19T12:44:23.319Z,33.10
2019-05-19T12:46:51.733Z,34.40
2019-05-19T12:49:20.257Z,37.10
2019-05-19T12:51:48.662Z,39.30
2019-05-19T12:54:17.086Z,41.60
2019-05-19T12:56:45.485Z,41.20
2019-05-19T12:59:13.958Z,39.00
2019-05-19T13:01:42.367Z,38.00
2019-05-19T13:04:10.780Z,37.20
2019-05-19T13:06:39.670Z,36.50
2019-05-19T13:09:08.250Z,34.50
2019-05-19T13:11:36.686Z,34.00
2019-05-19T13:14:05.249Z,36.30
2019-05-19T13:16:33.658Z,36.70
2019-05-19T13:19:02.121Z,35.90
2019-05-19T13:21:30.534Z,35.90
2019-05-19T13:23:58.987Z,33.10
2019-05-19T13:26:27.394Z,33.00
2019-05-19T13:28:55.814Z,34.90
2019-05-19T13:31:24.222Z,36.70
2019-05-19T13:33:52.677Z,37.90
2019-05-19T13:36:21.081Z,36.00
2019-05-19T13:38:49.554Z,36.00
2019-05-19T13:41:17.949Z,41.20
2019-05-19T13:43:46.362Z,40.00
2019-05-19T13:46:14.778Z,43.90
2019-05-19T13:48:43.213Z,43.60
2019-05-19T13:51:11.611Z,45.30
2019-05-19T13:53:40.030Z,48.10
2019-05-19T13:56:08.440Z,45.50
2019-05-19T13:58:36.854Z,47.30
2019-05-19T14:01:05.790Z,49.30
2019-05-19T14:03:34.325Z,51.50
2019-05-19T14:06:02.721Z,49.40
2019-05-19T14:08:31.221Z,50.50
2019-05-19T14:10:59.697Z,54.10
2019-05-19T14:13:28.140Z,46.90
2019-05-19T14:15:56.542Z,53.90
2019-05-19T14:18:24.966Z,57.20
2019-05-19T14:20:53.371Z,55.50
2019-05-19T14:23:21.786Z,57.30
2019-05-19T14:25:50.265Z,60.60
2019-05-19T14:28:18.678Z,58.20
2019-05-19T14:30:47.107Z,55.00
2019-05-19T14:33:15.595Z,58.00
2019-05-19T14:35:44.015Z,62.30
2019-05-19T14:38:12.450Z,69.90
2019-05-19T14:40:41.018Z,73.30
2019-05-19T14:43:09.567Z,85.70
2019-05-19T14:45:38.014Z,84.30
2019-05-19T14:48:06.477Z,74.00
2019-05-19T14:50:34.887Z,69.30
2019-05-19T14:53:03.293Z,69.80
2019-05-19T14:55:31.707Z,62.50
2019-05-19T14:58:00.114Z,61.40
2019-05-19T15:00:28.586Z,56.30
2019-05-19T15:02:56.990Z,59.90
2019-05-19T15:05:25.401Z,65.10
2019-05-19T15:07:53.838Z,64.70
2019-05-19T15:10:22.684Z,68.50
2019-05-19T15:12:51.105Z,70.20
2019-05-19T15:15:20.115Z,78.30
2019-05-19T15:17:48.545Z,81.90
2019-05-19T15:20:17.097Z,72.80
2019-05-19T15:22:45.507Z,67.20
2019-05-19T15:25:14.489Z,69.40
2019-05-19T15:27:42.894Z,65.00
2019-05-19T15:30:13.802Z,61.90
2019-05-19T15:32:42.070Z,61.90
2019-05-19T15:35:11.252Z,62.30
2019-05-19T15:37:39.726Z,62.60
2019-05-19T15:40:08.894Z,65.80
2019-05-19T15:42:37.302Z,64.10
2019-05-19T15:45:07.158Z,60.70
2019-05-19T15:47:35.573Z,60.80
2019-05-19T15:50:06.799Z,62.80
2019-05-19T15:52:35.258Z,58.40
2019-05-19T15:55:04.909Z,59.90
2019-05-19T15:57:33.498Z,61.50
2019-05-19T16:00:02.334Z,59.00
2019-05-19T16:02:31.842Z,58.30
2019-05-19T16:05:00.261Z,61.40
2019-05-19T16:07:28.667Z,63.70
2019-05-19T16:09:57.084Z,60.50
2019-05-19T16:12:25.580Z,59.30
2019-05-19T16:14:54.258Z,59.20
2019-05-19T16:17:22.667Z,62.10
2019-05-19T16:19:51.085Z,62.80
2019-05-19T16:22:19.498Z,63.20
2019-05-19T16:24:47.927Z,66.10
2019-05-19T16:27:16.371Z,64.30
2019-05-19T16:29:44.822Z,66.00
2019-05-19T16:32:13.246Z,66.00
2019-05-19T16:34:41.666Z,65.40
2019-05-19T16:37:10.154Z,64.20
2019-05-19T16:39:38.665Z,66.60
2019-05-19T16:42:07.095Z,65.90
2019-05-19T16:44:35.553Z,67.60
2019-05-19T16:47:04.198Z,67.00
2019-05-19T16:49:32.684Z,65.40
2019-05-19T16:52:01.122Z,69.30
2019-05-19T16:54:37.378Z,69.20
2019-05-19T16:57:05.773Z,73.00
2019-05-19T16:59:34.203Z,71.50
2019-05-19T17:02:02.757Z,73.10
2019-05-19T17:04:31.573Z,75.90
2019-05-19T17:07:02.878Z,75.50
2019-05-19T17:09:30.154Z,79.50
2019-05-19T17:11:58.639Z,81.30
2019-05-19T17:14:27.076Z,86.30
2019-05-19T17:16:55.506Z,91.10
2019-05-19T17:19:24.054Z,90.90
2019-05-19T17:22:29.731Z,91.70
2019-05-19T17:25:00.363Z,92.40
2019-05-19T17:27:30.254Z,95.30
2019-05-19T17:29:58.674Z,99.90
2019-05-19T17:32:27.079Z,98.20
2019-05-19T17:34:55.496Z,98.90
2019-05-19T17:37:23.901Z,97.80
2019-05-19T17:39:52.309Z,99.90
2019-05-19T17:42:20.723Z,99.90
2019-05-19T17:44:49.309Z,99.90
2019-05-19T17:47:17.820Z,99.90
2019-05-19T17:49:46.300Z,99.90
2019-05-19T17:52:14.715Z,99.90
2019-05-19T17:54:43.582Z,99.90
2019-05-19T17:57:12.134Z,99.90
2019-05-19T17:59:43.695Z,99.90
2019-05-19T18:02:12.098Z,99.90
2019-05-19T18:04:40.586Z,99.90
2019-05-19T18:07:08.981Z,99.90
2019-05-19T18:09:37.386Z,99.90
2019-05-19T18:12:05.801Z,99.90
2019-05-19T18:14:34.214Z,99.90
2019-05-19T18:17:02.994Z,99.90
2019-05-19T18:19:31.399Z,99.90
2019-05-19T18:21:59.933Z,99.90
2019-05-19T18:24:28.369Z,99.90
2019-05-19T18:26:56.779Z,99.90
2019-05-19T18:29:31.533Z,99.90
2019-05-19T18:31:55.385Z,99.90
2019-05-19T18:34:23.777Z,99.90
2019-05-19T18:36:52.190Z,99.90
2019-05-19T18:39:20.698Z,99.90
2019-05-19T18:41:49.466Z,99.90
2019-05-19T18:44:17.973Z,99.90
2019-05-19T18:46:46.394Z,99.90
2019-05-19T18:49:14.802Z,99.90
2019-05-19T18:51:43.212Z,99.90
2019-05-19T18:54:11.617Z,99.90
2019-05-19T18:56:40.031Z,99.90
2019-05-19T18:59:08.436Z,99.90
2019-05-19T19:01:36.848Z,99.90
2019-05-19T19:04:05.272Z,99.90
2019-05-19T19:06:33.850Z,99.90
2019-05-19T19:09:02.498Z,99.90
2019-05-19T19:11:31.015Z,99.90
2019-05-19T19:13:59.433Z,99.90
2019-05-19T19:16:27.837Z,99.90
2019-05-19T19:18:56.251Z,99.90
2019-05-19T19:21:24.659Z,99.90
2019-05-19T19:23:53.074Z,99.90
2019-05-19T19:26:21.490Z,99.90
2019-05-19T19:28:49.903Z,99.90
2019-05-19T19:31:18.311Z,99.90
2019-05-19T19:33:46.717Z,99.90
2019-05-19T19:36:15.130Z,99.90
2019-05-19T19:38:43.539Z,99.90
2019-05-19T19:41:11.945Z,99.90
2019-05-19T19:43:40.354Z,99.90
2019-05-19T19:46:08.762Z,99.90
2019-05-19T19:48:37.176Z,99.90
2019-05-19T19:51:05.584Z,99.90
2019-05-19T19:53:33.989Z,99.90
2019-05-19T19:56:02.397Z,99.90
2019-05-19T19:58:30.808Z,99.90
2019-05-19T20:00:59.227Z,99.90
2019-05-19T20:03:27.694Z,99.90
2019-05-19T20:05:56.137Z,99.90
2019-05-19T20:08:24.537Z,99.90
2019-05-19T20:10:52.955Z,99.90
2019-05-19T20:13:21.370Z,99.90
2019-05-19T20:15:49.806Z,99.90
2019-05-19T20:18:18.222Z,99.90
2019-05-19T20:20:46.661Z,99.90
2019-05-19T20:23:15.065Z,99.90
2019-05-19T20:25:43.487Z,99.90
2019-05-19T20:28:11.895Z,99.90
2019-05-19T20:30:40.308Z,99.90
2019-05-19T20:33:08.737Z,99.90
2019-05-19T20:35:37.234Z,99.90
2019-05-19T20:38:05.719Z,99.90
2019-05-19T20:40:34.131Z,99.90
2019-05-19T20:43:02.577Z,99.90
2019-05-19T20:45:31.237Z,99.90
2019-05-19T20:47:59.834Z,99.90
2019-05-19T20:50:29.232Z,99.90
2019-05-19T20:52:57.645Z,99.90
2019-05-19T20:55:26.093Z,99.90
2019-05-19T20:57:54.498Z,99.90
2019-05-19T21:00:22.918Z,99.90
2019-05-19T21:02:51.546Z,99.90
2019-05-19T21:05:20.051Z,99.90
2019-05-19T21:07:49.786Z,99.90
2019-05-19T21:10:18.237Z,99.90
2019-05-19T21:12:46.689Z,99.90
2019-05-19T21:15:15.277Z,99.90
2019-05-19T21:17:43.685Z,99.90
2019-05-19T21:20:12.385Z,99.90
2019-05-19T21:22:40.790Z,99.90
2019-05-19T21:25:09.657Z,99.90
2019-05-19T21:27:38.093Z,99.90
2019-05-19T21:30:07.786Z,99.90
2019-05-19T21:32:36.198Z,99.90
2019-05-19T21:35:06.257Z,99.90
2019-05-19T21:37:34.653Z,99.90
2019-05-19T21:40:03.438Z,99.90
2019-05-19T21:42:31.864Z,99.90
2019-05-19T21:45:00.363Z,99.90
2019-05-19T21:47:28.770Z,99.90
2019-05-19T21:49:57.298Z,99.90
2019-05-19T21:52:25.713Z,99.90
2019-05-19T21:54:54.154Z,99.90
2019-05-19T21:57:22.625Z,99.90
2019-05-19T21:59:51.041Z,99.90
2019-05-19T22:02:19.453Z,99.90
2019-05-19T22:04:47.869Z,99.90
2019-05-19T22:07:18.185Z,99.90
2019-05-19T22:09:46.659Z,99.90
2019-05-19T22:12:15.065Z,99.90
2019-05-19T22:14:43.552Z,99.90
2019-05-19T22:17:11.965Z,99.90
2019-05-19T22:19:40.419Z,99.90
2019-05-19T22:22:08.865Z,99.90
2019-05-19T22:24:37.361Z,99.90
2019-05-19T22:27:05.781Z,99.90
2019-05-19T22:29:34.189Z,99.90
2019-05-19T22:32:02.677Z,99.90
2019-05-19T22:34:31.085Z,99.90
2019-05-19T22:36:59.506Z,99.90
2019-05-19T22:39:27.930Z,99.90
2019-05-19T22:41:56.343Z,99.90
2019-05-19T22:44:24.766Z,99.90
2019-05-19T22:46:53.181Z,99.90
2019-05-19T22:49:21.593Z,99.90
2019-05-19T22:51:50.014Z,99.90
2019-05-19T22:54:18.430Z,99.90
2019-05-19T22:56:46.846Z,99.90
2019-05-19T22:59:19.864Z,99.90
2019-05-19T23:01:51.730Z,99.90
2019-05-19T23:04:15.540Z,99.90
2019-05-19T23:06:43.946Z,99.90
2019-05-19T23:09:12.360Z,99.90
2019-05-19T23:11:40.782Z,99.90
2019-05-19T23:14:09.194Z,99.90
2019-05-19T23:16:37.606Z,99.90
2019-05-19T23:19:06.025Z,99.90
2019-05-19T23:21:34.615Z,99.90
2019-05-19T23:24:03.127Z,99.90
2019-05-19T23:26:31.541Z,99.90
2019-05-19T23:29:00.022Z,99.90
2019-05-19T23:31:28.434Z,99.90
2019-05-19T23:33:56.887Z,99.90
2019-05-19T23:36:25.347Z,99.90
2019-05-19T23:38:53.773Z,99.90
2019-05-19T23:41:22.174Z,99.90
2019-05-19T23:43:50.607Z,99.90
2019-05-19T23:46:19.027Z,99.90
2019-05-19T23:48:47.431Z,99.90
2019-05-19T23:51:15.846Z,99.90
2019-05-19T23:53:44.276Z,99.90
2019-05-19T23:56:12.673Z,99.90
2019-05-19T23:58:41.230Z,99.90
